createdAt,value
2022-09-15T00:00:18.336Z,80.81
2022-09-15T00:03:15.856Z,80.88
2022-09-15T00:06:13.281Z,80.98
2022-09-15T00:09:10.721Z,81.04
2022-09-15T00:12:08.156Z,81.14
2022-09-15T00:15:05.573Z,81.20
2022-09-15T00:18:03.406Z,81.24
2022-09-15T00:21:00.839Z,81.24
2022-09-15T00:23:58.256Z,81.20
2022-09-15T00:26:56.905Z,81.19
2022-09-15T00:29:54.326Z,81.12
2022-09-15T00:32:51.729Z,81.18
2022-09-15T00:35:49.146Z,81.20
2022-09-15T00:38:46.589Z,81.20
2022-09-15T00:41:44.014Z,81.16
2022-09-15T00:44:41.460Z,81.07
2022-09-15T00:47:38.912Z,80.92
2022-09-15T00:50:36.341Z,80.93
2022-09-15T00:53:33.789Z,80.93
2022-09-15T00:56:31.217Z,80.95
2022-09-15T00:59:44.061Z,80.88
2022-09-15T01:02:42.408Z,80.82
2022-09-15T01:05:39.859Z,80.74
2022-09-15T01:08:37.294Z,80.72
2022-09-15T01:11:34.713Z,80.72
2022-09-15T01:14:32.114Z,80.72
2022-09-15T01:17:29.466Z,80.93
2022-09-15T01:20:26.825Z,81.03
2022-09-15T01:23:24.209Z,81.06
2022-09-15T01:26:21.566Z,81.03
2022-09-15T01:29:21.261Z,81.05
2022-09-15T01:32:36.748Z,80.94
2022-09-15T01:35:34.480Z,80.88
2022-09-15T01:38:31.863Z,80.83
2022-09-15T01:41:29.303Z,80.80
2022-09-15T01:44:26.730Z,80.78
2022-09-15T01:47:24.151Z,80.69
2022-09-15T01:50:21.586Z,80.68
2022-09-15T01:53:19.084Z,80.60
2022-09-15T01:56:16.501Z,80.63
2022-09-15T01:59:13.958Z,80.60
2022-09-15T02:02:12.630Z,80.60
2022-09-15T02:05:10.188Z,80.74
2022-09-15T02:08:08.911Z,80.82
2022-09-15T02:11:06.330Z,80.93
2022-09-15T02:14:04.203Z,81.00
2022-09-15T02:17:03.125Z,81.06
2022-09-15T02:20:00.558Z,81.08
2022-09-15T02:22:58.365Z,81.16
2022-09-15T02:25:56.117Z,81.20
2022-09-15T02:28:53.641Z,81.30
2022-09-15T02:31:52.488Z,81.38
2022-09-15T02:34:51.589Z,81.44
2022-09-15T02:37:49.088Z,81.44
2022-09-15T02:40:46.539Z,81.53
2022-09-15T02:43:43.981Z,81.64
2022-09-15T02:46:41.413Z,81.72
2022-09-15T02:49:38.896Z,81.76
2022-09-15T02:52:36.292Z,81.76
2022-09-15T02:55:33.708Z,81.72
2022-09-15T02:58:31.137Z,81.70
2022-09-15T03:01:30.269Z,81.70
2022-09-15T03:04:27.713Z,81.78
2022-09-15T03:07:25.157Z,81.88
2022-09-15T03:10:22.582Z,81.91
2022-09-15T03:13:20.011Z,82.00
2022-09-15T03:16:17.543Z,82.02
2022-09-15T03:19:14.985Z,82.10
2022-09-15T03:22:12.453Z,82.12
2022-09-15T03:25:10.717Z,82.22
2022-09-15T03:28:08.813Z,82.30
2022-09-15T03:31:06.352Z,82.30
2022-09-15T03:34:03.881Z,82.35
2022-09-15T03:37:01.302Z,82.43
2022-09-15T03:39:58.826Z,82.49
2022-09-15T03:42:56.357Z,82.50
2022-09-15T03:45:53.853Z,82.57
2022-09-15T03:48:51.298Z,82.55
2022-09-15T03:51:48.798Z,82.57
2022-09-15T03:54:46.191Z,82.58
2022-09-15T03:57:43.606Z,82.60
2022-09-15T04:00:41.156Z,82.63
2022-09-15T04:03:44.152Z,82.68
2022-09-15T04:06:44.076Z,82.67
2022-09-15T04:09:42.024Z,82.70
2022-09-15T04:12:39.478Z,82.69
2022-09-15T04:15:36.904Z,82.70
2022-09-15T04:18:34.363Z,82.79
2022-09-15T04:21:32.711Z,82.79
2022-09-15T04:24:30.150Z,82.84
2022-09-15T04:27:27.813Z,82.88
2022-09-15T04:30:25.285Z,82.88
2022-09-15T04:33:22.753Z,82.89
2022-09-15T04:36:21.202Z,82.95
2022-09-15T04:39:19.797Z,82.97
2022-09-15T04:42:17.212Z,82.98
2022-09-15T04:45:14.641Z,83.01
2022-09-15T04:48:12.078Z,83.02
2022-09-15T04:51:09.485Z,83.00
2022-09-15T04:54:06.914Z,83.00
2022-09-15T04:57:04.366Z,83.00
2022-09-15T05:00:04.591Z,83.00
2022-09-15T05:03:02.027Z,83.00
2022-09-15T05:05:59.545Z,83.00
2022-09-15T05:08:57.000Z,82.99
2022-09-15T05:11:54.526Z,82.98
2022-09-15T05:14:51.972Z,83.00
2022-09-15T05:17:49.943Z,82.96
2022-09-15T05:20:47.402Z,82.84
2022-09-15T05:23:44.934Z,82.80
2022-09-15T05:26:42.871Z,82.73
2022-09-15T05:29:40.317Z,82.61
2022-09-15T05:32:37.755Z,82.48
2022-09-15T05:35:35.207Z,82.38
2022-09-15T05:38:32.654Z,82.29
2022-09-15T05:41:30.114Z,82.31
2022-09-15T05:44:27.558Z,82.41
2022-09-15T05:47:24.967Z,82.52
2022-09-15T05:50:22.427Z,82.59
2022-09-15T05:53:19.858Z,82.57
2022-09-15T05:56:17.295Z,82.60
2022-09-15T05:59:14.737Z,82.57
2022-09-15T06:02:12.236Z,82.65
2022-09-15T06:05:09.685Z,82.71
2022-09-15T06:08:07.103Z,82.76
2022-09-15T06:11:04.528Z,82.80
2022-09-15T06:14:03.321Z,82.81
2022-09-15T06:17:00.930Z,82.78
2022-09-15T06:19:59.346Z,82.40
2022-09-15T06:22:57.125Z,82.35
2022-09-15T06:25:54.592Z,81.81
2022-09-15T06:28:52.013Z,81.43
2022-09-15T06:31:49.502Z,81.13
2022-09-15T06:34:46.965Z,80.86
2022-09-15T06:37:44.531Z,80.60
2022-09-15T06:40:41.998Z,80.04
2022-09-15T06:43:39.416Z,79.63
2022-09-15T06:46:36.936Z,79.31
2022-09-15T06:49:34.404Z,79.29
2022-09-15T06:52:31.836Z,78.97
2022-09-15T06:55:29.236Z,78.78
2022-09-15T06:58:26.673Z,78.71
2022-09-15T07:01:24.186Z,78.63
2022-09-15T07:04:21.952Z,78.47
2022-09-15T07:07:19.394Z,78.21
2022-09-15T07:10:16.825Z,77.57
2022-09-15T07:13:14.251Z,77.07
2022-09-15T07:16:11.692Z,76.98
2022-09-15T07:19:09.531Z,76.32
2022-09-15T07:22:06.969Z,75.99
2022-09-15T07:25:04.399Z,75.72
2022-09-15T07:28:02.354Z,75.18
2022-09-15T07:30:59.852Z,74.97
2022-09-15T07:33:57.272Z,74.63
2022-09-15T07:36:54.702Z,74.39
2022-09-15T07:39:52.171Z,74.07
2022-09-15T07:42:49.642Z,73.44
2022-09-15T07:45:47.213Z,73.13
2022-09-15T07:48:44.723Z,72.79
2022-09-15T07:51:43.147Z,72.30
2022-09-15T07:54:40.583Z,71.93
2022-09-15T07:57:38.083Z,71.61
2022-09-15T08:00:36.062Z,71.25
2022-09-15T08:03:33.537Z,70.88
2022-09-15T08:06:30.976Z,70.90
2022-09-15T08:09:28.424Z,70.75
2022-09-15T08:12:26.071Z,70.44
2022-09-15T08:15:23.476Z,70.13
2022-09-15T08:18:20.906Z,69.66
2022-09-15T08:21:18.344Z,69.49
2022-09-15T08:24:16.811Z,69.53
2022-09-15T08:27:14.235Z,69.33
2022-09-15T08:30:11.652Z,69.35
2022-09-15T08:33:09.102Z,69.38
2022-09-15T08:36:06.623Z,69.47
2022-09-15T08:39:04.101Z,69.49
2022-09-15T08:42:01.586Z,69.25
2022-09-15T08:44:59.014Z,69.22
2022-09-15T08:47:58.742Z,68.93
2022-09-15T08:50:57.345Z,68.58
2022-09-15T08:53:54.790Z,68.63
2022-09-15T08:56:52.202Z,68.53
2022-09-15T08:59:49.640Z,68.07
2022-09-15T09:02:47.152Z,67.73
2022-09-15T09:05:45.742Z,67.43
2022-09-15T09:08:43.206Z,67.21
2022-09-15T09:11:40.629Z,66.97
2022-09-15T09:14:38.035Z,66.51
2022-09-15T09:17:35.477Z,66.22
2022-09-15T09:20:33.555Z,66.11
2022-09-15T09:23:31.247Z,66.18
2022-09-15T09:26:28.740Z,66.09
2022-09-15T09:29:28.125Z,66.34
2022-09-15T09:32:25.605Z,66.71
2022-09-15T09:35:23.123Z,66.03
2022-09-15T09:38:20.574Z,65.80
2022-09-15T09:41:18.017Z,65.66
2022-09-15T09:44:15.446Z,65.32
2022-09-15T09:47:13.584Z,65.28
2022-09-15T09:50:11.045Z,64.80
2022-09-15T09:53:08.512Z,64.72
2022-09-15T09:56:05.968Z,64.56
2022-09-15T09:59:03.818Z,64.82
2022-09-15T10:02:01.247Z,65.25
2022-09-15T10:04:58.701Z,65.70
2022-09-15T10:07:56.191Z,66.16
2022-09-15T10:10:53.619Z,66.30
2022-09-15T10:13:51.056Z,66.53
2022-09-15T10:16:48.548Z,66.75
2022-09-15T10:19:46.022Z,67.05
2022-09-15T10:22:43.427Z,67.51
2022-09-15T10:25:59.463Z,67.68
2022-09-15T10:28:57.303Z,67.77
2022-09-15T10:31:54.754Z,67.90
2022-09-15T10:34:52.307Z,67.99
2022-09-15T10:37:50.121Z,68.22
2022-09-15T10:40:47.547Z,68.45
2022-09-15T10:43:44.982Z,68.76
2022-09-15T10:46:42.405Z,68.57
2022-09-15T10:49:39.848Z,68.20
2022-09-15T10:52:37.263Z,67.93
2022-09-15T10:55:51.503Z,67.85
2022-09-15T10:58:50.940Z,67.99
2022-09-15T11:01:48.357Z,68.20
2022-09-15T11:04:45.821Z,68.18
2022-09-15T11:07:43.281Z,68.25
2022-09-15T11:10:40.712Z,68.39
2022-09-15T11:13:38.218Z,68.31
2022-09-15T11:16:35.700Z,68.37
2022-09-15T11:19:33.187Z,68.02
2022-09-15T11:22:30.613Z,67.93
2022-09-15T11:25:28.197Z,68.26
2022-09-15T11:28:25.698Z,68.18
2022-09-15T11:31:23.194Z,68.26
2022-09-15T11:34:21.001Z,68.27
2022-09-15T11:37:18.438Z,68.49
2022-09-15T11:40:16.023Z,68.37
2022-09-15T11:43:13.495Z,68.42
2022-09-15T11:46:10.983Z,68.64
2022-09-15T11:49:08.890Z,68.69
2022-09-15T11:52:06.374Z,68.85
2022-09-15T11:55:04.056Z,68.82
2022-09-15T11:58:01.513Z,69.11
2022-09-15T12:00:58.919Z,69.50
2022-09-15T12:03:56.381Z,69.63
2022-09-15T12:06:54.238Z,69.57
2022-09-15T12:09:51.717Z,69.70
2022-09-15T12:12:49.147Z,69.79
2022-09-15T12:15:46.634Z,70.03
2022-09-15T12:18:46.678Z,70.10
2022-09-15T12:21:44.691Z,70.12
2022-09-15T12:24:44.042Z,70.44
2022-09-15T12:27:41.486Z,70.47
2022-09-15T12:30:39.108Z,70.96
2022-09-15T12:33:36.542Z,71.22
2022-09-15T12:36:34.061Z,71.37
2022-09-15T12:39:31.583Z,71.60
2022-09-15T12:42:29.927Z,71.68
2022-09-15T12:45:27.362Z,71.98
2022-09-15T12:48:24.812Z,72.19
2022-09-15T12:51:22.753Z,72.39
2022-09-15T12:54:20.496Z,72.65
2022-09-15T12:57:17.936Z,72.93
2022-09-15T13:00:15.384Z,72.98
2022-09-15T13:03:12.878Z,73.12
2022-09-15T13:06:10.369Z,72.62
2022-09-15T13:09:07.839Z,72.25
2022-09-15T13:12:05.285Z,72.28
2022-09-15T13:15:04.182Z,72.28
2022-09-15T13:18:01.635Z,72.44
2022-09-15T13:20:59.658Z,72.32
2022-09-15T13:23:57.108Z,72.10
2022-09-15T13:26:55.788Z,72.18
2022-09-15T13:29:53.861Z,72.16
2022-09-15T13:32:52.667Z,71.88
2022-09-15T13:35:51.056Z,71.41
2022-09-15T13:38:50.863Z,71.48
2022-09-15T13:41:48.725Z,71.38
2022-09-15T13:44:46.148Z,71.22
2022-09-15T13:47:43.576Z,71.37
2022-09-15T13:50:41.347Z,71.07
2022-09-15T13:53:42.797Z,71.08
2022-09-15T13:56:41.349Z,70.93
2022-09-15T13:59:39.107Z,70.66
2022-09-15T14:02:36.768Z,70.52
2022-09-15T14:05:34.287Z,70.52
2022-09-15T14:08:32.631Z,70.00
2022-09-15T14:11:30.392Z,68.80
2022-09-15T14:14:27.895Z,68.01
2022-09-15T14:17:25.334Z,67.00
2022-09-15T14:20:22.778Z,65.71
2022-09-15T14:23:20.215Z,64.88
2022-09-15T14:26:18.500Z,63.91
2022-09-15T14:29:16.253Z,62.92
2022-09-15T14:32:13.690Z,62.71
2022-09-15T14:35:13.851Z,62.22
2022-09-15T14:38:13.524Z,61.45
2022-09-15T14:41:10.946Z,61.37
2022-09-15T14:44:08.558Z,61.21
2022-09-15T14:47:06.456Z,60.65
2022-09-15T14:50:04.594Z,60.49
2022-09-15T14:53:02.025Z,60.20
2022-09-15T14:56:02.150Z,59.76
2022-09-15T14:59:01.960Z,59.43
2022-09-15T15:01:59.404Z,59.29
2022-09-15T15:04:57.637Z,59.29
2022-09-15T15:07:55.515Z,59.64
2022-09-15T15:10:52.960Z,59.82
2022-09-15T15:13:50.423Z,59.98
2022-09-15T15:16:47.931Z,60.09
2022-09-15T15:19:45.473Z,60.31
2022-09-15T15:22:42.902Z,60.59
2022-09-15T15:25:40.334Z,60.87
2022-09-15T15:28:37.823Z,61.08
2022-09-15T15:31:35.320Z,61.44
2022-09-15T15:34:33.481Z,61.82
2022-09-15T15:37:31.142Z,62.07
2022-09-15T15:40:28.777Z,62.47
2022-09-15T15:43:26.663Z,62.97
2022-09-15T15:46:24.109Z,63.80
2022-09-15T15:49:22.304Z,64.47
2022-09-15T15:52:19.721Z,64.93
2022-09-15T15:55:17.121Z,65.38
2022-09-15T15:58:14.550Z,65.69
2022-09-15T16:01:12.054Z,66.08
2022-09-15T16:04:11.546Z,66.23
2022-09-15T16:07:08.993Z,66.33
2022-09-15T16:10:06.418Z,66.45
2022-09-15T16:13:03.856Z,66.75
2022-09-15T16:16:01.403Z,66.80
2022-09-15T16:18:58.904Z,66.75
2022-09-15T16:21:56.342Z,67.02
2022-09-15T16:24:55.285Z,67.29
2022-09-15T16:27:52.727Z,67.47
2022-09-15T16:30:50.166Z,67.52
2022-09-15T16:33:47.594Z,67.78
2022-09-15T16:36:45.009Z,68.11
2022-09-15T16:39:42.463Z,68.38
2022-09-15T16:42:39.905Z,68.57
2022-09-15T16:45:40.549Z,68.69
2022-09-15T16:48:38.808Z,68.78
2022-09-15T16:51:36.325Z,68.97
2022-09-15T16:54:33.822Z,69.30
2022-09-15T16:57:31.277Z,69.40
2022-09-15T17:00:28.804Z,69.51
2022-09-15T17:03:26.274Z,69.62
2022-09-15T17:06:23.750Z,69.68
2022-09-15T17:09:21.437Z,69.83
2022-09-15T17:12:19.432Z,69.99
2022-09-15T17:15:16.963Z,70.10
2022-09-15T17:18:15.535Z,70.23
2022-09-15T17:21:13.031Z,70.44
2022-09-15T17:24:10.470Z,70.63
2022-09-15T17:27:08.233Z,70.75
2022-09-15T17:30:05.943Z,70.88
2022-09-15T17:33:03.442Z,70.97
2022-09-15T17:36:00.941Z,71.10
2022-09-15T17:38:58.404Z,71.22
2022-09-15T17:41:55.915Z,71.32
2022-09-15T17:44:53.460Z,71.44
2022-09-15T17:47:50.903Z,71.51
2022-09-15T17:50:48.796Z,71.60
2022-09-15T17:53:47.225Z,71.68
2022-09-15T17:56:44.740Z,71.72
2022-09-15T17:59:42.480Z,71.83
2022-09-15T18:02:40.275Z,71.97
2022-09-15T18:05:38.112Z,72.08
2022-09-15T18:08:36.429Z,72.17
2022-09-15T18:11:34.321Z,72.27
2022-09-15T18:14:32.065Z,72.38
2022-09-15T18:17:29.899Z,72.60
2022-09-15T18:20:27.378Z,72.70
2022-09-15T18:23:24.971Z,72.87
2022-09-15T18:26:26.362Z,73.06
2022-09-15T18:29:24.825Z,73.20
2022-09-15T18:32:22.799Z,73.28
2022-09-15T18:35:20.534Z,73.42
2022-09-15T18:38:18.271Z,73.58
2022-09-15T18:41:16.062Z,73.75
2022-09-15T18:44:13.813Z,73.85
2022-09-15T18:47:11.355Z,73.90
2022-09-15T18:50:08.990Z,74.00
2022-09-15T18:53:06.498Z,74.03
2022-09-15T18:56:04.245Z,74.14
2022-09-15T18:59:02.074Z,74.26
2022-09-15T19:02:00.035Z,74.40
2022-09-15T19:04:58.018Z,74.47
2022-09-15T19:07:55.841Z,74.53
2022-09-15T19:10:54.003Z,74.59
2022-09-15T19:13:52.235Z,74.66
2022-09-15T19:16:57.525Z,74.70
2022-09-15T19:19:56.266Z,74.76
2022-09-15T19:22:53.969Z,74.77
2022-09-15T19:25:51.783Z,74.80
2022-09-15T19:28:49.546Z,74.80
2022-09-15T19:31:47.504Z,74.80
2022-09-15T19:34:45.258Z,74.85
2022-09-15T19:37:42.738Z,74.90
2022-09-15T19:40:40.706Z,74.91
2022-09-15T19:43:40.425Z,74.91
2022-09-15T19:46:38.271Z,74.93
2022-09-15T19:49:35.775Z,74.89
2022-09-15T19:52:33.443Z,74.88
2022-09-15T19:55:30.963Z,74.80
2022-09-15T19:58:28.410Z,74.88
2022-09-15T20:01:25.948Z,74.90
2022-09-15T20:07:38.337Z,75.10
2022-09-15T20:10:35.716Z,75.17
2022-09-15T20:13:33.114Z,75.28
2022-09-15T20:16:30.488Z,75.38
2022-09-15T20:19:27.844Z,75.45
2022-09-15T20:22:25.218Z,75.49
2022-09-15T20:25:24.057Z,75.52
2022-09-15T20:28:21.466Z,75.53
2022-09-15T20:31:19.221Z,75.50
2022-09-15T20:34:16.614Z,75.56
2022-09-15T20:37:14.038Z,75.60
2022-09-15T20:40:11.518Z,75.61
2022-09-15T20:43:08.986Z,75.70
2022-09-15T20:46:06.730Z,75.70
2022-09-15T20:49:04.432Z,75.78
2022-09-15T20:52:01.856Z,75.84
2022-09-15T20:54:59.317Z,76.04
2022-09-15T20:57:56.742Z,76.31
2022-09-15T21:00:54.206Z,76.70
2022-09-15T21:03:51.691Z,77.06
2022-09-15T21:06:49.194Z,77.32
2022-09-15T21:09:46.617Z,77.50
2022-09-15T21:12:44.061Z,77.60
2022-09-15T21:15:41.512Z,77.59
2022-09-15T21:18:39.366Z,77.66
2022-09-15T21:21:36.800Z,77.68
2022-09-15T21:24:34.235Z,77.81
2022-09-15T21:27:31.966Z,77.91
2022-09-15T21:30:29.415Z,78.10
2022-09-15T21:33:27.551Z,78.17
2022-09-15T21:36:24.990Z,78.22
2022-09-15T21:39:22.473Z,78.32
2022-09-15T21:42:19.917Z,78.18
2022-09-15T21:45:18.627Z,77.82
2022-09-15T21:48:16.862Z,77.68
2022-09-15T21:51:15.425Z,77.58
2022-09-15T21:54:13.754Z,77.53
2022-09-15T21:57:11.193Z,77.55
2022-09-15T22:00:08.978Z,77.49
2022-09-15T22:03:06.393Z,77.40
2022-09-15T22:06:03.829Z,77.40
2022-09-15T22:09:01.275Z,77.40
2022-09-15T22:11:58.810Z,77.50
2022-09-15T22:14:56.216Z,77.46
2022-09-15T22:17:53.652Z,77.36
2022-09-15T22:20:52.531Z,77.13
2022-09-15T22:23:49.966Z,77.10
2022-09-15T22:26:47.405Z,77.01
2022-09-15T22:29:44.813Z,76.88
2022-09-15T22:32:42.270Z,76.82
2022-09-15T22:35:39.710Z,76.79
2022-09-15T22:38:37.148Z,76.60
2022-09-15T22:41:34.590Z,76.53
2022-09-15T22:44:32.029Z,76.47
2022-09-15T22:47:29.472Z,76.43
2022-09-15T22:50:26.914Z,76.40
2022-09-15T22:53:24.402Z,76.36
2022-09-15T22:56:21.800Z,76.26
2022-09-15T22:59:19.232Z,76.20
2022-09-15T23:02:16.730Z,76.16
2022-09-15T23:05:14.211Z,76.10
2022-09-15T23:08:12.130Z,76.19
2022-09-15T23:11:09.532Z,76.25
2022-09-15T23:14:07.304Z,76.36
2022-09-15T23:17:04.730Z,76.43
2022-09-15T23:20:02.160Z,76.56
2022-09-15T23:23:00.299Z,76.65
2022-09-15T23:25:57.712Z,76.71
2022-09-15T23:28:55.186Z,76.80
2022-09-15T23:31:52.678Z,76.81
2022-09-15T23:34:50.163Z,76.89
2022-09-15T23:37:47.602Z,76.67
2022-09-15T23:40:45.038Z,76.46
2022-09-15T23:43:42.552Z,76.30
2022-09-15T23:46:40.725Z,76.30
2022-09-15T23:49:38.998Z,76.24
2022-09-15T23:52:36.444Z,76.28
2022-09-15T23:55:34.552Z,76.25
2022-09-15T23:58:32.018Z,76.37
